Time;durP1;ratioP1;P1;durP2;ratioP2;P2;SDS_P1;SDS_P2;PMS_P1;PMS_P2;Temp;Humidity;BMP_temperature;BMP_pressure;BME280_temperature;BME280_humidity;BME280_pressure;Samples;Min_cycle;Max_cycle;Signal;HPM_P1;HPM_P2
2022/01/07 00:01:43;;;;;;;7.43;5.82;;;-0.60;91.30;-1.20;96683.00;;;;5017317;28;88759;-63
2022/01/07 00:04:09;;;;;;;7.53;6.28;;;-0.60;91.30;-1.30;96678.00;;;;5021232;28;87179;-64
2022/01/07 00:06:35;;;;;;;8.15;6.38;;;-0.70;91.30;-1.30;96675.00;;;;5020103;28;87036;-63
2022/01/07 00:09:02;;;;;;;7.78;5.82;;;-0.70;91.40;-1.40;96678.00;;;;5020346;28;87230;-64
2022/01/07 00:11:28;;;;;;;9.30;6.43;;;-0.80;91.40;-1.50;96682.00;;;;5028383;28;88585;-64
2022/01/07 00:13:54;;;;;;;6.25;5.43;;;-0.90;91.50;-1.50;96691.00;;;;5040820;28;90553;-64
2022/01/07 00:16:20;;;;;;;7.68;5.57;;;-0.90;91.60;-1.60;96682.00;;;;5037260;28;86856;-65
2022/01/07 00:18:46;;;;;;;5.95;4.93;;;-1.00;91.60;-1.60;96686.00;;;;5020836;28;87617;-64
2022/01/07 00:21:13;;;;;;;8.60;5.85;;;-1.00;91.50;-1.60;96686.00;;;;5019363;28;87039;-64
2022/01/07 00:23:39;;;;;;;6.93;5.10;;;-1.10;91.50;-1.60;96672.00;;;;5020023;28;89635;-64
2022/01/07 00:26:05;;;;;;;7.72;4.57;;;-1.00;91.50;-1.60;96684.00;;;;5019813;28;87276;-64
2022/01/07 00:28:31;;;;;;;6.35;4.40;;;-1.00;91.20;-1.60;96688.00;;;;5004828;28;86917;-63
2022/01/07 00:30:57;;;;;;;5.93;4.22;;;-1.00;91.10;-1.60;96680.00;;;;5022985;28;87664;-63
2022/01/07 00:33:23;;;;;;;6.30;4.15;;;-1.00;90.90;-1.60;96680.00;;;;5028306;28;87400;-63
2022/01/07 00:35:52;;;;;;;4.50;3.42;;;-1.00;90.70;-1.60;96675.00;;;;5021755;28;88213;-54
2022/01/07 00:38:18;;;;;;;4.20;3.28;;;-1.00;90.50;-1.60;96686.00;;;;5022623;28;87016;-55
2022/01/07 00:40:45;;;;;;;4.20;3.10;;;-1.00;90.30;-1.60;96688.00;;;;5023276;28;88108;-55
2022/01/07 00:43:11;;;;;;;3.92;3.03;;;-1.00;90.20;-1.60;96689.00;;;;5023404;28;87447;-60
2022/01/07 00:45:37;;;;;;;4.05;2.80;;;-1.10;90.20;-1.60;96683.00;;;;5023528;28;87119;-59
2022/01/07 00:48:04;;;;;;;3.15;2.55;;;-1.00;90.00;-1.60;96685.00;;;;5023354;28;87166;-59
2022/01/07 00:50:31;;;;;;;4.80;1.65;;;-1.10;89.70;-1.60;96684.00;;;;5023730;28;87638;-59
2022/01/07 00:52:59;;;;;;;3.00;2.08;;;-1.10;87.20;-1.60;96679.00;;;;5005966;28;89613;-60
2022/01/07 00:55:26;;;;;;;3.65;1.90;;;-1.10;87.90;-1.60;96683.00;;;;5023775;28;87266;-59
2022/01/07 00:57:53;;;;;;;3.05;2.08;;;-1.10;87.80;-1.60;96698.00;;;;5024119;28;86972;-60
2022/01/07 01:00:23;;;;;;;3.33;2.20;;;-1.10;87.20;-1.70;96693.00;;;;5023615;28;88548;-64
2022/01/07 01:02:50;;;;;;;2.53;1.77;;;-1.10;88.20;-1.70;96690.00;;;;5022080;28;88362;-64
2022/01/07 01:05:17;;;;;;;2.78;1.98;;;-1.10;87.90;-1.70;96693.00;;;;5022292;28;87524;-64
2022/01/07 01:07:44;;;;;;;2.80;1.95;;;-1.20;87.30;-1.70;96696.00;;;;5022415;28;87327;-63
2022/01/07 01:10:12;;;;;;;2.83;1.65;;;-1.20;87.40;-1.70;96695.00;;;;5022254;28;87171;-64
2022/01/07 01:12:42;;;;;;;2.75;1.35;;;-1.20;87.20;-1.70;96694.00;;;;5023375;28;87487;-55
2022/01/07 01:15:12;;;;;;;1.85;1.13;;;-1.20;86.40;-1.70;96697.00;;;;5023370;28;86879;-52
2022/01/07 01:17:39;;;;;;;3.13;1.40;;;-1.20;85.50;-1.70;96697.00;;;;5022354;28;86876;-54
2022/01/07 01:20:09;;;;;;;1.00;0.90;;;-1.20;85.00;-1.70;96696.00;;;;5022844;28;88766;-52
2022/01/07 01:22:35;;;;;;;1.90;1.20;;;-1.20;84.70;-1.70;96695.00;;;;5021914;28;87405;-59
2022/01/07 01:25:04;;;;;;;0.90;0.80;;;-1.20;85.10;-1.70;96697.00;;;;5025072;28;87983;-59
2022/01/07 01:27:30;;;;;;;1.45;1.00;;;-1.20;85.00;-1.70;96704.00;;;;5022306;28;87377;-59
2022/01/07 01:29:57;;;;;;;1.55;1.02;;;-1.20;85.20;-1.80;96706.00;;;;5022355;28;88617;-60
2022/01/07 01:32:23;;;;;;;1.63;1.15;;;-1.20;85.40;-1.80;96698.00;;;;5022380;28;87483;-60
2022/01/07 01:34:49;;;;;;;2.72;1.30;;;-1.20;85.60;-1.80;96705.00;;;;5023135;28;87063;-55
2022/01/07 01:37:15;;;;;;;1.95;1.00;;;-1.20;85.60;-1.80;96703.00;;;;5022462;28;87418;-55
2022/01/07 01:39:41;;;;;;;3.63;1.30;;;-1.30;85.50;-1.70;96701.00;;;;5021003;28;88714;-53
2022/01/07 01:42:08;;;;;;;2.53;1.13;;;-1.30;85.70;-1.80;96700.00;;;;5023068;28;87216;-54
2022/01/07 01:44:34;;;;;;;1.58;1.10;;;-1.30;86.00;-1.80;96704.00;;;;5021974;28;87051;-63
2022/01/07 01:47:00;;;;;;;1.38;1.25;;;-1.20;86.10;-1.80;96709.00;;;;5021562;28;87415;-64
2022/01/07 01:49:26;;;;;;;2.47;1.20;;;-1.30;86.50;-1.80;96706.00;;;;5022130;28;89183;-64
2022/01/07 01:51:52;;;;;;;1.83;1.27;;;-1.30;86.90;-1.80;96707.00;;;;5023101;28;88141;-64
2022/01/07 01:54:19;;;;;;;2.70;1.38;;;-1.30;87.10;-1.90;96710.00;;;;5022895;28;87261;-54
2022/01/07 01:56:45;;;;;;;2.22;1.40;;;-1.30;87.00;-1.90;96701.00;;;;5022544;28;86961;-57
2022/01/07 01:59:12;;;;;;;3.70;1.70;;;-1.30;87.10;-1.90;96705.00;;;;5025229;28;87541;-58
2022/01/07 02:01:40;;;;;;;1.77;1.35;;;-1.30;87.20;-1.90;96701.00;;;;5022090;28;87092;-57
2022/01/07 02:04:07;;;;;;;3.70;1.77;;;-1.30;87.10;-1.90;96701.00;;;;5022423;28;87398;-59
2022/01/07 02:06:36;;;;;;;2.58;1.80;;;-1.40;87.30;-1.90;96704.00;;;;5023137;28;86207;-60
2022/01/07 02:09:02;;;;;;;2.40;1.50;;;-1.40;87.20;-1.90;96697.00;;;;5021365;28;87485;-58
2022/01/07 02:11:29;;;;;;;3.78;1.40;;;-1.40;87.50;-1.90;96706.00;;;;5022405;28;87291;-58
2022/01/07 02:13:56;;;;;;;2.83;1.52;;;-1.40;87.30;-1.90;96712.00;;;;5022393;28;87903;-58
2022/01/07 02:16:25;;;;;;;2.80;1.65;;;-1.40;87.70;-2.00;96709.00;;;;5022207;28;86966;-58
2022/01/07 02:18:52;;;;;;;2.45;1.40;;;-1.40;86.90;-2.00;96709.00;;;;5022392;28;87998;-60
2022/01/07 02:21:18;;;;;;;2.33;1.42;;;-1.40;86.90;-2.00;96716.00;;;;5021579;28;87417;-64
2022/01/07 02:23:44;;;;;;;2.38;1.40;;;-1.50;86.80;-2.00;96719.00;;;;5024649;28;87020;-63
2022/01/07 02:26:12;;;;;;;4.15;2.08;;;-1.50;86.80;-2.00;96726.00;;;;5021863;28;86976;-63
2022/01/07 02:28:41;;;;;;;3.13;1.58;;;-1.40;86.90;-2.00;96721.00;;;;5021114;28;87677;-64
2022/01/07 02:31:07;;;;;;;2.75;1.52;;;-1.50;86.60;-2.00;96731.00;;;;5021849;28;87306;-64
2022/01/07 02:33:34;;;;;;;2.58;1.65;;;-1.50;86.80;-2.00;96736.00;;;;5020827;28;87342;-64
2022/01/07 02:36:07;;;;;;;2.90;1.10;;;-1.50;86.80;-2.00;96743.00;;;;5022238;28;87281;-64
2022/01/07 02:38:35;;;;;;;1.50;1.27;;;-1.50;86.80;-2.00;96731.00;;;;5019847;28;88589;-63
2022/01/07 02:41:01;;;;;;;3.45;1.45;;;-1.50;86.50;-2.00;96750.00;;;;5021779;28;88154;-62
2022/01/07 02:43:27;;;;;;;1.95;1.20;;;-1.50;86.50;-2.00;96735.00;;;;5021942;28;86875;-63
2022/01/07 02:45:53;;;;;;;3.13;1.42;;;-1.50;85.80;-2.00;96743.00;;;;5021425;28;87231;-52
2022/01/07 02:48:20;;;;;;;2.03;1.42;;;-1.50;86.20;-2.00;96743.00;;;;5021565;28;87856;-51
2022/01/07 02:50:46;;;;;;;2.40;1.30;;;-1.50;85.70;-2.00;96753.00;;;;5021500;28;87172;-54
2022/01/07 02:53:12;;;;;;;2.22;1.27;;;-1.50;85.00;-2.00;96741.00;;;;5017556;28;87547;-54
2022/01/07 02:55:42;;;;;;;4.95;1.85;;;-1.50;85.50;-2.00;96747.00;;;;5020769;28;86868;-52
2022/01/07 02:58:09;;;;;;;3.20;1.70;;;-1.50;86.20;-2.10;96747.00;;;;5021074;28;87578;-53
2022/01/07 03:00:36;;;;;;;2.78;1.60;;;-1.50;86.70;-2.10;96736.00;;;;5022228;28;88027;-50
2022/01/07 03:03:04;;;;;;;3.40;1.50;;;-1.50;86.60;-2.10;96750.00;;;;5019562;28;88027;-59
2022/01/07 03:05:30;;;;;;;3.72;1.90;;;-1.50;86.50;-2.10;96752.00;;;;5021227;28;86975;-60
2022/01/07 03:07:57;;;;;;;3.60;2.13;;;-1.50;86.80;-2.10;96753.00;;;;5021035;28;87095;-58
2022/01/07 03:10:33;;;;;;;3.17;1.50;;;-1.50;87.20;-2.10;96763.00;;;;5021103;28;87279;-59
2022/01/07 03:13:03;;;;;;;2.03;1.52;;;-1.50;86.40;-2.10;96763.00;;;;5002101;28;87067;-60
2022/01/07 03:15:31;;;;;;;2.53;1.52;;;-1.50;86.60;-2.10;96765.00;;;;5001169;28;87324;-59
2022/01/07 03:17:58;;;;;;;2.42;1.40;;;-1.50;86.80;-2.10;96752.00;;;;5015419;28;88269;-57
2022/01/07 03:20:24;;;;;;;4.80;1.58;;;-1.60;86.30;-2.10;96764.00;;;;5021219;28;86633;-53
2022/01/07 03:22:51;;;;;;;3.67;1.38;;;-1.60;86.50;-2.10;96757.00;;;;5020666;28;86856;-55
2022/01/07 03:25:18;;;;;;;5.20;1.60;;;-1.60;87.20;-2.10;96757.00;;;;5024141;28;87378;-56
2022/01/07 03:27:44;;;;;;;4.05;1.58;;;-1.60;86.50;-2.20;96763.00;;;;5018877;28;91084;-56
2022/01/07 03:30:14;;;;;;;3.50;1.50;;;-1.60;86.70;-2.20;96764.00;;;;5020405;28;88323;-55
2022/01/07 03:32:40;;;;;;;4.78;1.75;;;-1.60;86.70;-2.20;96769.00;;;;5022136;28;86920;-56
2022/01/07 03:35:11;;;;;;;3.83;1.65;;;-1.60;86.70;-2.20;96774.00;;;;5027916;28;86911;-55
2022/01/07 03:37:40;;;;;;;2.60;1.40;;;-1.60;86.80;-2.20;96771.00;;;;5020517;28;87681;-57
2022/01/07 03:40:07;;;;;;;4.00;1.92;;;-1.60;87.20;-2.20;96760.00;;;;5020272;28;87403;-55
2022/01/07 03:42:34;;;;;;;2.22;1.70;;;-1.70;87.30;-2.20;96764.00;;;;5003326;28;86986;-56
2022/01/07 03:45:00;;;;;;;2.65;1.70;;;-1.70;86.80;-2.20;96767.00;;;;5021111;28;86599;-63
2022/01/07 03:47:27;;;;;;;2.88;1.73;;;-1.60;86.70;-2.20;96759.00;;;;5019894;28;87647;-63
2022/01/07 03:49:53;;;;;;;3.53;1.83;;;-1.70;86.70;-2.20;96767.00;;;;5019375;28;89924;-64
2022/01/07 03:52:19;;;;;;;4.95;2.38;;;-1.70;86.70;-2.30;96767.00;;;;5020727;28;88347;-64
2022/01/07 03:54:45;;;;;;;3.40;1.92;;;-1.70;86.70;-2.30;96764.00;;;;5020465;28;86857;-64
2022/01/07 03:57:11;;;;;;;4.22;1.90;;;-1.70;86.70;-2.30;96769.00;;;;5019645;28;88000;-59
2022/01/07 03:59:37;;;;;;;3.60;2.17;;;-1.70;86.70;-2.20;96774.00;;;;5023009;28;88455;-59
2022/01/07 04:02:04;;;;;;;2.95;1.95;;;-1.70;87.30;-2.30;96771.00;;;;5020103;28;87242;-64
2022/01/07 04:04:30;;;;;;;3.22;1.80;;;-1.70;87.60;-2.20;96786.00;;;;5021007;28;86975;-60
2022/01/07 04:06:56;;;;;;;4.72;2.00;;;-1.70;87.70;-2.20;96767.00;;;;5002781;28;87698;-59
2022/01/07 04:09:22;;;;;;;3.05;1.73;;;-1.70;88.00;-2.20;96775.00;;;;5020953;28;87350;-60
2022/01/07 04:11:48;;;;;;;3.30;2.10;;;-1.70;88.50;-2.20;96778.00;;;;5020531;28;86952;-59
2022/01/07 04:14:14;;;;;;;3.08;2.13;;;-1.70;89.30;-2.30;96786.00;;;;5020972;28;86898;-61
2022/01/07 04:16:40;;;;;;;2.58;2.00;;;-1.70;89.70;-2.30;96788.00;;;;5018656;28;88428;-60
2022/01/07 04:19:06;;;;;;;3.80;2.20;;;-1.70;90.10;-2.30;96779.00;;;;5001872;28;89201;-63
2022/01/07 04:21:32;;;;;;;4.38;2.47;;;-1.80;90.30;-2.40;96780.00;;;;4985884;28;88228;-52
2022/01/07 04:23:58;;;;;;;4.25;2.45;;;-1.80;90.70;-2.40;96784.00;;;;5018986;28;87435;-51
2022/01/07 04:26:25;;;;;;;4.38;2.50;;;-1.90;90.70;-2.40;96792.00;;;;5019420;28;87678;-53
2022/01/07 04:28:51;;;;;;;4.95;2.72;;;-1.90;90.70;-2.40;96801.00;;;;5019510;28;87076;-55
2022/01/07 04:31:17;;;;;;;3.92;2.90;;;-1.90;90.80;-2.40;96794.00;;;;5020334;28;87030;-63
2022/01/07 04:33:43;;;;;;;4.68;2.80;;;-1.90;91.10;-2.50;96799.00;;;;5029501;28;86147;-64
2022/01/07 04:36:09;;;;;;;3.75;2.58;;;-1.90;91.00;-2.50;96799.00;;;;5019890;28;87649;-63
2022/01/07 04:38:35;;;;;;;4.60;2.58;;;-2.00;91.10;-2.50;96814.00;;;;5019421;28;87336;-63
2022/01/07 04:41:01;;;;;;;4.07;2.88;;;-2.00;91.30;-2.50;96804.00;;;;5019316;28;88371;-63
2022/01/07 04:43:27;;;;;;;4.80;2.83;;;-2.00;91.40;-2.60;96814.00;;;;5020216;28;87116;-63
2022/01/07 04:45:53;;;;;;;4.97;2.58;;;-2.00;91.50;-2.60;96812.00;;;;5019548;28;87042;-63
2022/01/07 04:48:19;;;;;;;3.45;2.50;;;-2.00;91.50;-2.60;96810.00;;;;5019853;28;88131;-63
2022/01/07 04:50:46;;;;;;;3.47;2.28;;;-2.00;91.10;-2.60;96810.00;;;;5018741;28;87339;-63
2022/01/07 04:53:12;;;;;;;3.40;2.25;;;-2.10;90.80;-2.60;96827.00;;;;5019149;28;87008;-54
2022/01/07 04:55:38;;;;;;;2.15;1.60;;;-2.10;91.00;-2.70;96810.00;;;;5019444;28;87523;-53
2022/01/07 04:58:11;;;;;;;3.22;2.05;;;-2.10;90.60;-2.70;96824.00;;;;5020016;28;88319;-55
2022/01/07 05:00:38;;;;;;;2.88;1.75;;;-2.10;90.60;-2.70;96829.00;;;;5019528;28;86948;-53
2022/01/07 05:03:05;;;;;;;3.42;1.63;;;-2.10;90.30;-2.70;96820.00;;;;5019627;28;86921;-64
2022/01/07 05:05:31;;;;;;;2.60;1.90;;;-2.20;90.30;-2.80;96830.00;;;;5019387;28;88578;-54
2022/01/07 05:07:58;;;;;;;2.05;1.45;;;-2.20;90.30;-2.80;96825.00;;;;5019617;28;88400;-56
2022/01/07 05:10:24;;;;;;;3.10;1.42;;;-2.30;90.00;-2.80;96838.00;;;;5018469;28;87466;-56
2022/01/07 05:12:51;;;;;;;2.25;1.50;;;-2.30;90.20;-2.90;96854.00;;;;5040045;28;87259;-57
2022/01/07 05:15:18;;;;;;;1.75;1.40;;;-2.30;90.20;-2.90;96843.00;;;;5041891;27;87543;-54
2022/01/07 05:17:46;;;;;;;2.70;1.63;;;-2.30;89.90;-2.90;96841.00;;;;5023709;28;87395;-57
2022/01/07 05:20:14;;;;;;;2.42;1.55;;;-2.30;89.70;-2.90;96848.00;;;;5022610;28;86957;-55
2022/01/07 05:22:41;;;;;;;1.67;1.30;;;-2.30;89.60;-3.00;96851.00;;;;5021265;28;86385;-55
2022/01/07 05:25:09;;;;;;;1.75;1.38;;;-2.40;88.80;-3.00;96866.00;;;;5021675;28;88639;-58
2022/01/07 05:27:36;;;;;;;1.60;1.33;;;-2.40;88.60;-3.00;96852.00;;;;5020548;28;88079;-58
2022/01/07 05:30:05;;;;;;;2.58;1.23;;;-2.40;88.60;-3.00;96867.00;;;;5020042;28;87887;-57
2022/01/07 05:32:32;;;;;;;1.80;1.30;;;-2.40;87.70;-3.00;96870.00;;;;5020768;28;87105;-57
2022/01/07 05:34:58;;;;;;;2.13;1.42;;;-2.40;87.60;-3.00;96871.00;;;;5022347;28;87929;-57
2022/01/07 05:37:24;;;;;;;1.50;1.13;;;-2.40;87.30;-3.00;96870.00;;;;5021789;28;87318;-61
2022/01/07 05:39:50;;;;;;;1.83;1.48;;;-2.40;87.30;-3.00;96875.00;;;;5022225;28;87044;-59
2022/01/07 05:42:18;;;;;;;1.92;1.20;;;-2.50;87.20;-3.10;96884.00;;;;5020081;28;87197;-60
2022/01/07 05:44:44;;;;;;;2.33;1.52;;;-2.40;87.20;-3.10;96879.00;;;;5021859;28;88534;-54
2022/01/07 05:47:10;;;;;;;2.17;1.20;;;-2.50;87.30;-3.10;96882.00;;;;5022158;28;87339;-55
2022/01/07 05:49:36;;;;;;;2.22;1.33;;;-2.50;86.70;-3.10;96899.00;;;;5022123;28;87578;-54
2022/01/07 05:52:02;;;;;;;1.58;1.10;;;-2.50;86.80;-3.10;96901.00;;;;5022529;28;87245;-55
2022/01/07 05:54:29;;;;;;;2.00;1.27;;;-2.50;86.80;-3.10;96894.00;;;;5022227;28;88425;-53
2022/01/07 05:56:55;;;;;;;2.05;1.30;;;-2.50;86.50;-3.10;96899.00;;;;5004189;28;90650;-53
2022/01/07 05:59:21;;;;;;;2.50;1.40;;;-2.50;86.00;-3.10;96901.00;;;;5027428;28;87272;-55
2022/01/07 06:01:47;;;;;;;2.67;1.52;;;-2.50;86.40;-3.10;96903.00;;;;5021897;28;87845;-50
2022/01/07 06:04:13;;;;;;;2.25;1.40;;;-2.50;86.30;-3.20;96904.00;;;;5022401;28;87816;-55
2022/01/07 06:06:39;;;;;;;4.68;1.60;;;-2.50;86.30;-3.20;96916.00;;;;5022551;28;87790;-55
2022/01/07 06:09:05;;;;;;;5.38;1.88;;;-2.50;86.00;-3.20;96928.00;;;;5021702;28;87532;-52
2022/01/07 06:11:31;;;;;;;2.28;1.58;;;-2.60;85.70;-3.30;96919.00;;;;5021369;28;86314;-54
2022/01/07 06:13:57;;;;;;;1.48;1.17;;;-2.70;84.50;-3.30;96922.00;;;;5021845;28;88298;-55
2022/01/07 06:16:24;;;;;;;3.38;1.20;;;-2.70;84.60;-3.30;96927.00;;;;5021924;28;87244;-53
2022/01/07 06:18:58;;;;;;;1.83;1.50;;;-2.70;84.70;-3.30;96919.00;;;;5020458;28;87878;-53
2022/01/07 06:21:26;;;;;;;2.55;1.83;;;-2.70;84.80;-3.30;96927.00;;;;5019052;28;87986;-55
2022/01/07 06:23:53;;;;;;;2.83;1.50;;;-2.70;84.90;-3.30;96943.00;;;;5022261;28;87731;-53
2022/01/07 06:26:19;;;;;;;2.17;1.90;;;-2.70;84.50;-3.40;96932.00;;;;5017635;28;87268;-55
2022/01/07 06:28:45;;;;;;;1.88;1.50;;;-2.80;84.30;-3.40;96933.00;;;;5020430;28;87517;-54
2022/01/07 06:31:12;;;;;;;2.08;1.38;;;-2.80;84.20;-3.50;96937.00;;;;5021217;28;87159;-51
2022/01/07 06:33:38;;;;;;;2.67;1.48;;;-2.90;84.50;-3.50;96930.00;;;;5021788;28;87432;-54
2022/01/07 06:36:04;;;;;;;1.88;1.35;;;-2.90;84.00;-3.50;96928.00;;;;5021707;28;87194;-52
2022/01/07 06:38:31;;;;;;;5.43;1.88;;;-2.90;84.30;-3.60;96947.00;;;;5021039;28;87509;-53
2022/01/07 06:40:57;;;;;;;3.45;1.50;;;-3.00;83.90;-3.60;96939.00;;;;5021638;28;87066;-52
2022/01/07 06:43:23;;;;;;;3.30;1.50;;;-3.00;83.90;-3.70;96938.00;;;;5020797;28;89656;-53
2022/01/07 06:45:49;;;;;;;2.55;1.80;;;-3.10;83.70;-3.70;96949.00;;;;5020176;28;88205;-55
2022/01/07 06:48:15;;;;;;;2.47;1.42;;;-3.10;83.60;-3.80;96955.00;;;;5018279;28;86941;-56
2022/01/07 06:50:42;;;;;;;2.10;1.50;;;-3.10;83.50;-3.80;96951.00;;;;5021255;28;87395;-53
2022/01/07 06:53:08;;;;;;;1.60;1.48;;;-3.20;83.50;-3.90;96953.00;;;;5020750;28;87273;-55
2022/01/07 06:55:34;;;;;;;2.03;1.52;;;-3.20;83.50;-3.90;96949.00;;;;5021478;28;87324;-57
2022/01/07 06:58:00;;;;;;;1.67;1.30;;;-3.20;83.00;-4.00;96959.00;;;;5021467;28;87036;-55
2022/01/07 07:00:27;;;;;;;1.17;1.08;;;-3.30;80.70;-4.00;96968.00;;;;5021404;28;86682;-53
2022/01/07 07:02:53;;;;;;;3.40;1.77;;;-3.30;79.70;-4.00;96970.00;;;;5018965;28;87734;-56
2022/01/07 07:05:20;;;;;;;2.47;1.10;;;-3.30;78.90;-4.00;96972.00;;;;5020728;28;87383;-50
2022/01/07 07:07:46;;;;;;;1.98;1.05;;;-3.40;77.60;-4.00;96976.00;;;;5020154;28;87917;-53
2022/01/07 07:10:12;;;;;;;1.42;1.10;;;-3.30;77.20;-4.00;96983.00;;;;5003405;28;87383;-54
2022/01/07 07:12:38;;;;;;;1.52;1.00;;;-3.40;74.60;-4.00;96967.00;;;;5038058;28;89827;-51
2022/01/07 07:15:05;;;;;;;1.52;0.93;;;-3.40;74.10;-4.00;96975.00;;;;5041356;27;87304;-55
2022/01/07 07:17:31;;;;;;;1.80;1.25;;;-3.40;74.10;-4.00;96975.00;;;;5033045;27;87518;-53
2022/01/07 07:19:57;;;;;;;2.55;1.00;;;-3.40;73.00;-4.10;96976.00;;;;5020887;28;87162;-55
2022/01/07 07:22:23;;;;;;;2.28;1.00;;;-3.40;72.30;-4.10;96977.00;;;;5019323;28;88531;-55
2022/01/07 07:24:50;;;;;;;2.58;1.25;;;-3.40;71.90;-4.10;96979.00;;;;5019626;28;87191;-53
2022/01/07 07:27:16;;;;;;;1.50;1.10;;;-3.40;71.50;-4.10;97002.00;;;;5020408;28;87354;-55
2022/01/07 07:29:42;;;;;;;1.90;1.10;;;-3.40;71.00;-4.10;96999.00;;;;5019254;28;87641;-53
2022/01/07 07:32:09;;;;;;;2.45;0.80;;;-3.40;70.40;-4.20;96997.00;;;;5020229;28;88429;-51
2022/01/07 07:37:05;;;;;;;1.35;1.10;;;-3.60;68.20;-4.30;96999.00;;;;5019117;28;87199;-52
2022/01/07 07:39:32;;;;;;;1.85;1.00;;;-3.60;68.30;-4.30;96996.00;;;;5020115;28;87389;-55
2022/01/07 07:41:58;;;;;;;1.27;0.93;;;-3.60;66.50;-4.30;96996.00;;;;5020284;28;88007;-54
2022/01/07 07:44:28;;;;;;;1.20;0.95;;;-3.70;65.40;-4.30;97006.00;;;;5019573;28;89333;-53
2022/01/07 07:46:55;;;;;;;2.47;1.00;;;-3.60;65.00;-4.40;96993.00;;;;5020190;28;87516;-51
2022/01/07 07:49:21;;;;;;;2.55;1.00;;;-3.60;64.60;-4.40;97008.00;;;;5020043;28;86328;-53
2022/01/07 07:51:47;;;;;;;1.45;1.02;;;-3.70;64.80;-4.40;97014.00;;;;5020343;28;90289;-54
2022/01/07 07:54:13;;;;;;;1.38;0.98;;;-3.70;66.10;-4.40;97003.00;;;;5020272;28;88325;-56
2022/01/07 07:56:39;;;;;;;1.10;0.90;;;-3.70;67.20;-4.40;97002.00;;;;5019928;28;88402;-56
2022/01/07 07:59:06;;;;;;;1.48;1.02;;;-3.80;68.00;-4.40;97007.00;;;;5019997;28;87044;-56
2022/01/07 08:01:32;;;;;;;2.05;1.35;;;-3.80;68.20;-4.40;97011.00;;;;5019756;28;87805;-57
2022/01/07 08:03:58;;;;;;;6.35;2.10;;;-3.70;69.10;-4.30;97007.00;;;;5020259;28;87322;-54
2022/01/07 08:06:24;;;;;;;4.68;2.03;;;-3.60;69.60;-4.20;97019.00;;;;5018877;28;86938;-55
2022/01/07 08:08:50;;;;;;;6.47;1.98;;;-3.50;69.80;-4.00;97006.00;;;;5019662;28;87806;-54
2022/01/07 08:11:17;;;;;;;1.50;1.33;;;-3.40;69.90;-4.00;97018.00;;;;5025649;28;87632;-54
2022/01/07 08:16:29;;;;;;;3.33;2.10;;;-3.30;71.30;-3.90;97015.00;;;;5040684;28;86897;-52
2022/01/07 08:18:58;;;;;;;2.85;2.25;;;-3.30;71.30;-3.90;97004.00;;;;5020878;28;87012;-52
2022/01/07 08:21:29;;;;;;;3.50;2.22;;;-3.30;71.60;-4.00;97007.00;;;;5018779;28;89676;-53
2022/01/07 08:23:56;;;;;;;4.00;2.65;;;-3.40;71.90;-4.10;97039.00;;;;5019229;28;88334;-53
2022/01/07 08:26:24;;;;;;;4.35;2.20;;;-3.50;72.50;-4.20;97034.00;;;;5019096;28;86979;-54
2022/01/07 08:28:55;;;;;;;3.55;2.03;;;-3.60;73.90;-4.20;97048.00;;;;5019315;28;87207;-53
2022/01/07 08:34:52;;;;;;;3.25;2.00;;;-3.50;74.00;-4.30;97046.00;;;;5019033;28;88725;-56
2022/01/07 08:36:55;;;;;;;2.75;2.08;;;-3.80;75.40;-4.50;97051.00;;;;5019569;28;87300;-56
2022/01/07 08:39:23;;;;;;;2.67;2.00;;;-3.80;75.30;-4.60;97063.00;;;;5020559;28;86566;-54
2022/01/07 08:41:49;;;;;;;2.55;2.00;;;-3.90;73.70;-4.70;97049.00;;;;5018990;28;87508;-55
2022/01/07 08:44:16;;;;;;;2.85;1.73;;;-4.00;73.70;-4.70;97076.00;;;;5020080;28;87162;-54
2022/01/07 08:46:43;;;;;;;5.22;1.85;;;-4.10;71.70;-4.80;97075.00;;;;5018817;28;88398;-54
2022/01/07 08:49:09;;;;;;;2.45;1.80;;;-4.10;70.00;-4.90;97074.00;;;;5021081;28;87207;-54
2022/01/07 08:51:36;;;;;;;2.22;1.45;;;-4.20;68.80;-4.90;97076.00;;;;5023183;28;88676;-51
2022/01/07 08:54:03;;;;;;;1.33;1.23;;;-4.30;69.10;-5.10;97102.00;;;;5018973;28;87206;-55
2022/01/07 08:56:29;;;;;;;2.47;1.35;;;-4.40;68.40;-5.20;97100.00;;;;5023481;28;86819;-55
2022/01/07 08:58:57;;;;;;;1.80;1.40;;;-4.60;68.40;-5.30;97097.00;;;;5025543;28;87299;-55
2022/01/07 09:01:27;;;;;;;3.00;1.58;;;-4.60;68.60;-5.30;97104.00;;;;5022422;28;88623;-54
2022/01/07 09:03:53;;;;;;;2.63;1.85;;;-4.70;68.80;-5.30;97103.00;;;;5023261;28;87407;-54
2022/01/07 09:06:19;;;;;;;3.38;2.20;;;-4.60;69.60;-5.30;97113.00;;;;5023144;28;86850;-55
2022/01/07 09:08:46;;;;;;;2.63;1.80;;;-4.60;69.90;-5.40;97107.00;;;;5022564;28;87302;-54
2022/01/07 09:11:12;;;;;;;2.90;1.70;;;-4.70;69.10;-5.40;97109.00;;;;5021503;28;89564;-52
2022/01/07 09:13:38;;;;;;;4.13;2.03;;;-4.70;68.60;-5.40;97111.00;;;;5022653;28;87769;-58
2022/01/07 09:16:05;;;;;;;2.80;1.85;;;-4.70;68.90;-5.40;97117.00;;;;5022707;28;87301;-51
2022/01/07 09:18:32;;;;;;;3.60;1.98;;;-4.80;68.80;-5.50;97128.00;;;;5022758;28;87024;-52
2022/01/07 09:20:59;;;;;;;2.63;1.60;;;-4.80;69.50;-5.50;97136.00;;;;5022099;28;87625;-52
2022/01/07 09:23:25;;;;;;;3.13;1.80;;;-4.80;69.70;-5.50;97143.00;;;;5021257;28;87224;-51
2022/01/07 09:25:51;;;;;;;2.97;2.10;;;-4.80;70.10;-5.50;97150.00;;;;5022636;28;86900;-55
2022/01/07 09:28:18;;;;;;;3.00;2.03;;;-4.80;70.60;-5.50;97148.00;;;;5022614;28;86381;-57
2022/01/07 09:30:45;;;;;;;5.22;2.40;;;-4.80;71.20;-5.50;97151.00;;;;5021674;28;87716;-56
2022/01/07 09:33:11;;;;;;;5.65;2.60;;;-4.80;71.30;-5.50;97144.00;;;;5024619;28;87310;-54
2022/01/07 09:35:37;;;;;;;4.00;2.78;;;-4.80;71.90;-5.50;97141.00;;;;5021669;28;88280;-53
2022/01/07 09:38:05;;;;;;;2.88;1.80;;;-4.80;71.70;-5.50;97157.00;;;;5022292;28;86953;-52
2022/01/07 09:40:32;;;;;;;2.78;2.00;;;-4.80;71.20;-5.50;97169.00;;;;5022106;28;87348;-52
2022/01/07 09:42:59;;;;;;;2.17;1.50;;;-4.80;71.00;-5.40;97147.00;;;;5022284;28;88241;-53
2022/01/07 09:45:27;;;;;;;2.78;1.55;;;-4.80;70.90;-5.40;97160.00;;;;5022530;28;87361;-55
2022/01/07 09:47:54;;;;;;;3.42;1.67;;;-4.70;71.00;-5.40;97152.00;;;;5021153;28;87218;-54
2022/01/07 09:50:22;;;;;;;2.40;1.85;;;-4.70;71.50;-5.50;97156.00;;;;5022184;28;88593;-56
2022/01/07 09:52:48;;;;;;;3.55;1.90;;;-4.70;71.40;-5.50;97169.00;;;;5022373;28;87958;-53
2022/01/07 09:55:15;;;;;;;4.82;2.15;;;-4.80;71.30;-5.50;97166.00;;;;5022240;28;87433;-55
2022/01/07 09:57:41;;;;;;;3.42;2.20;;;-4.80;71.70;-5.40;97159.00;;;;5022265;28;87398;-55
2022/01/07 10:00:10;;;;;;;3.17;1.98;;;-4.80;72.10;-5.40;97156.00;;;;5019524;28;88562;-59
2022/01/07 10:02:59;;;;;;;2.58;1.80;;;-4.70;72.00;-5.40;97176.00;;;;5021532;28;88772;-53
2022/01/07 10:05:26;;;;;;;4.18;2.30;;;-4.70;72.20;-5.50;97166.00;;;;5022647;28;87007;-56
2022/01/07 10:07:52;;;;;;;2.22;1.88;;;-4.80;71.40;-5.50;97155.00;;;;5021874;28;86912;-55
2022/01/07 10:10:19;;;;;;;3.75;2.10;;;-4.70;71.80;-5.40;97160.00;;;;5021501;28;87507;-57
2022/01/07 10:13:00;;;;;;;4.45;2.10;;;-4.70;71.70;-5.50;97170.00;;;;5041121;28;86888;-54
2022/01/07 10:15:37;;;;;;;3.28;2.00;;;-4.80;72.60;-5.60;97143.00;;;;5041537;28;87004;-56
2022/01/07 10:18:08;;;;;;;3.78;2.22;;;-4.80;71.70;-5.50;97166.00;;;;5031946;28;86394;-52
2022/01/07 10:20:37;;;;;;;2.83;1.90;;;-4.80;71.90;-5.60;97156.00;;;;5021388;28;87062;-56
2022/01/07 10:23:06;;;;;;;3.30;1.92;;;-4.80;71.30;-5.50;97159.00;;;;5020769;28;88131;-55
2022/01/07 10:25:39;;;;;;;2.58;1.70;;;-4.90;71.30;-5.50;97166.00;;;;5020557;28;88220;-56
2022/01/07 10:28:15;;;;;;;4.25;2.65;;;-4.80;71.40;-5.50;97159.00;;;;5021346;28;87054;-52
2022/01/07 10:30:45;;;;;;;3.72;2.33;;;-4.80;71.90;-5.50;97169.00;;;;5021247;28;88612;-56
2022/01/07 10:33:28;;;;;;;3.17;1.90;;;-4.70;71.60;-5.50;97154.00;;;;5020928;28;87428;-57
2022/01/07 10:36:07;;;;;;;3.63;2.00;;;-4.70;71.40;-5.50;97154.00;;;;5020994;28;87259;-52
2022/01/07 10:38:59;;;;;;;4.40;2.13;;;-4.70;71.30;-5.50;97162.00;;;;5021269;28;86871;-56
2022/01/07 10:41:26;;;;;;;4.45;2.33;;;-4.80;71.30;-5.40;97156.00;;;;5021320;28;87650;-52
2022/01/07 10:43:52;;;;;;;3.72;2.22;;;-4.70;71.70;-5.40;97145.00;;;;5021880;28;87266;-54
2022/01/07 10:46:24;;;;;;;2.72;2.15;;;-4.70;71.60;-5.40;97153.00;;;;5020102;28;86967;-54
2022/01/07 10:49:00;;;;;;;3.60;2.38;;;-4.60;71.40;-5.40;97157.00;;;;5020527;28;87430;-57
2022/01/07 10:51:33;;;;;;;3.65;2.53;;;-4.70;71.40;-5.40;97150.00;;;;5000601;28;89649;-55
2022/01/07 10:54:03;;;;;;;4.07;2.25;;;-4.60;71.30;-5.30;97157.00;;;;5010968;28;88316;-56
2022/01/07 10:56:51;;;;;;;3.20;1.98;;;-4.60;71.60;-5.30;97157.00;;;;5021527;28;86919;-61
2022/01/07 10:59:21;;;;;;;2.58;1.65;;;-4.60;71.60;-5.30;97144.00;;;;5030420;28;86829;-61
2022/01/07 11:01:51;;;;;;;3.13;2.00;;;-4.60;70.70;-5.40;97148.00;;;;5021066;28;87634;-62
2022/01/07 11:04:26;;;;;;;4.68;2.10;;;-4.60;70.60;-5.40;97146.00;;;;5018841;28;87573;-61